x

Halifax Harbour (44258) Wave Buoy

6:00am - Thu 24th Jan 2019 All times are EST. -5 hours from GMT.

  • Sig Wave height 5.6ft
  • Peak Period 6s
  • Wind
    25mph, 29mph gusts
  • Sea Temp 34°f
  • Air Temp 40°f
  • Sea Pressure 1013.3mb
  • Halifax Harbour
  • Halifax Harbour

More Historic Weather Station data

Upgrade to MSW Pro to gain access to the past 30 days of data for over 8000 Wavebouys and Weather Stations around the globe.

Join

Comparision Forecast

View Surf forecast
   
Thu 01/24 6:00am 5.5ft 6s 25 29 mph 1013.3mb 34f 40f
5:00am 6ft 6s 18 22 mph 1013.7mb 34f 39f
4:00am 6ft 6s 22 27 mph 1013.9mb 34f 39f
3:00am 6ft 6s 25 31 mph 1014.5mb 34f 39f
2:00am 5ft 6s 25 29 mph 1015.2mb 34f 38f
1:00am 4.5ft 5s 20 25 mph 1016.1mb 34f 38f
12:00am 4ft 10s 22 29 mph 1016.7mb 34f 39f
Wed 01/23 11:00pm 4ft 5s 20 22 mph 1017.8mb 34f 37f
10:00pm 4ft 10s 20 25 mph 1018.5mb 34f 36f
9:00pm 3.5ft 10s 22 27 mph 1020mb 34f 35f
8:00pm 3.5ft 10s 20 25 mph 1022.2mb 34f 33f
7:00pm 3.5ft 9s 18 20 mph 1023.5mb 34f 33f
6:00pm 3.5ft 11s 16 20 mph 1024.7mb 34f 33f
5:00pm 3.5ft 10s 16 20 mph 1025.8mb 34f 32f
4:00pm 3.5ft 12s 18 20 mph 1026mb 34f 31f
3:00pm 3.5ft 12s 20 25 mph 1026.4mb 34f 30f
2:00pm 3ft 10s 16 20 mph 1026.8mb 34f 29f
1:00pm 3ft 11s 13 18 mph 1026.6mb 34f 27f
12:00pm 2.5ft 11s 13 18 mph 1027.3mb 34f 25f
11:00am 2.5ft 11s 9 13 mph 1028.6mb 34f 24f
10:00am 2.5ft 10s 7 11 mph 1030mb 34f 22f
9:00am 2.5ft 11s 11 13 mph 1029.8mb 34f 21f
8:00am 3ft 12s 13 18 mph 1029.8mb 34f 20f
7:00am 3ft 12s 13 18 mph 1029.5mb 34f 20f
6:00am 2.5ft 12s 13 16 mph 1029.2mb 34f 19f
5:00am 3ft 12s 11 16 mph 1029.4mb 34f 18f
4:00am 3.5ft 12s 13 18 mph 1028.6mb 34f 19f
3:00am 3.5ft 11s 18 22 mph 1027.9mb 34f 18f
2:00am 3.5ft 12s 20 25 mph 1027.5mb 34f 19f
1:00am 4ft 13s 20 27 mph 1025.9mb 34f 19f
12:00am 4.5ft 13s 22 27 mph 1025.5mb 34f 20f
Tue 01/22 11:00pm 4.5ft 13s 25 31 mph 1024.6mb 34f 20f
10:00pm 4.5ft 12s 27 34 mph 1023.6mb 34f 21f
9:00pm 5ft 13s 25 31 mph 1022.7mb 34f 21f
8:00pm 5.5ft 11s 22 27 mph 1022mb 34f 20f
7:00pm 6ft 11s 22 29 mph 1020.8mb 34f 20f
6:00pm 7ft 12s 25 31 mph 1019.6mb 34f 19f
5:00pm 7ft 12s 27 34 mph 1018.2mb 34f 19f
4:00pm 7ft 11s 27 34 mph 1017.2mb 34f 18f
3:00pm 7.5ft 12s 27 34 mph 1016mb 34f 16f
2:00pm 8ft 12s 29 40 mph 1014.4mb 34f 15f
1:00pm 8.5ft 12s 29 38 mph 1013.2mb 34f 15f
12:00pm 8.5ft 12s 29 36 mph 1012.2mb 34f 14f
11:00am 8ft 12s 29 36 mph 1011.6mb 34f 14f
10:00am 9ft 11s 29 36 mph 1010.8mb 34f 14f
9:00am 9ft 12s 22 29 mph 1009.9mb 34f 15f
8:00am 9.5ft 13s 22 27 mph 1008.7mb 34f 16f
7:00am 10ft 12s 20 27 mph 1007.7mb 35f 16f
6:00am 10ft 14s 22 29 mph 1006.4mb 34f 17f
5:00am 11ft 12s 22 31 mph 1005.4mb 34f 17f
4:00am 11ft 12s 25 34 mph 1004.3mb 34f 17f
3:00am 12.5ft 13s 20 29 mph 1003.9mb 35f 17f
2:00am 13ft 12s 18 22 mph 1003.6mb 34f 19f
1:00am 13ft 13s 20 27 mph 1002.8mb 34f 20f
12:00am 13ft 12s 18 25 mph 1001.7mb 34f 22f
Mon 01/21 11:00pm 14ft 13s 22 31 mph 1001.3mb 34f 24f
10:00pm 14ft 14s 16 22 mph 1000.7mb 34f 24f
9:00pm 14ft 13s 16 20 mph 1000mb 34f 25f
8:00pm 14ft 14s 13 18 mph 999mb 35f 26f
7:00pm 15.5ft 13s 9 16 mph 999.6mb 35f 26f
6:00pm 16.5ft 14s 16 22 mph 1000.1mb 35f 27f
5:00pm 17.5ft 14s 20 27 mph 1000.2mb 35f 28f
4:00pm 17.5ft 14s 22 27 mph 999.1mb 35f 29f
3:00pm 16ft 14s 22 27 mph 998.4mb 35f 29f
2:00pm 17.5ft 14s 25 31 mph 997.4mb 35f 29f
1:00pm 17ft 14s 29 36 mph 996mb 35f 29f
12:00pm 19ft 14s 31 38 mph 995.2mb 35f 30f
11:00am 20.5ft 13s 29 38 mph 995mb 35f 31f
10:00am 18.5ft 14s 27 36 mph 994.1mb 35f 32f
9:00am 19.5ft 12s 27 36 mph 992.6mb 35f 33f
8:00am 20ft 12s 29 36 mph 990.9mb 35f 33f
7:00am 20ft 12s 31 40 mph 989.5mb 35f 34f
6:00am  -  14s 29 38 mph 988.8mb 35f 35f
5:00am 17.5ft 11s 22 29 mph 987.6mb 35f 37f
4:00am 16.5ft 10s 22 27 mph 987.2mb 35f 40f
3:00am 14.5ft 9s 27 31 mph 986.4mb 35f 43f
2:00am 15ft 10s 25 29 mph 987.1mb 35f 44f
1:00am 13.5ft 8s 29 34 mph 987.8mb 35f 45f
12:00am 13ft 9s 34 40 mph 987.6mb 35f 45f
Sun 01/20 11:00pm 11.5ft 8s 31 38 mph 989.6mb 35f 46f
10:00pm 10.5ft 7s 31 38 mph 991.4mb 35f 44f
9:00pm 10ft 8s 27 31 mph 993.9mb 35f 44f
8:00pm 10ft 8s 31 40 mph 996.1mb 35f 45f
7:00pm  -   -  29
mph
997.1mb - 44f
6:00pm 10ft 8s 29 34 mph 999.1mb 35f 44f
5:00pm 11ft 8s 29 36 mph 1000.8mb 35f 44f
4:00pm 12ft 8s 27 34 mph 1001.6mb 35f 43f
3:00pm 12ft 8s 27 34 mph 1003mb 35f 41f
2:00pm 11.5ft 8s 27 31 mph 1005mb 35f 39f
1:00pm 12ft 7s 34 40 mph 1006.7mb 35f 37f